Time;durP1;ratioP1;P1;durP2;ratioP2;P2;SDS_P1;SDS_P2;PMS_P1;PMS_P2;Temp;Humidity;BMP_temperature;BMP_pressure;BME280_temperature;BME280_humidity;BME280_pressure;Samples;Min_cycle;Max_cycle;Signal;HPM_P1;HPM_P2
2022/01/08 00:01:34;;;;;;;17.00;8.23;;;2.10;99.90;;;;;;4969149;28;20170;-74
2022/01/08 00:04:00;;;;;;;17.55;8.45;;;2.20;99.90;;;;;;4968684;28;20400;-74
2022/01/08 00:06:26;;;;;;;19.52;8.68;;;2.20;99.90;;;;;;4968263;28;20053;-74
2022/01/08 00:08:51;;;;;;;13.35;7.97;;;2.20;99.90;;;;;;4970108;28;20045;-74
2022/01/08 00:11:20;;;;;;;18.40;8.88;;;2.30;99.90;;;;;;4965976;28;20042;-74
2022/01/08 00:13:47;;;;;;;16.40;8.13;;;2.30;99.90;;;;;;4964690;28;20047;-74
2022/01/08 00:16:12;;;;;;;13.52;8.57;;;2.30;99.90;;;;;;4968619;28;20124;-75
2022/01/08 00:18:38;;;;;;;14.35;7.97;;;2.30;99.90;;;;;;4965330;28;20038;-74
2022/01/08 00:21:04;;;;;;;16.85;7.63;;;2.20;99.90;;;;;;4967988;28;20035;-74
2022/01/08 00:23:30;;;;;;;15.52;8.15;;;2.20;99.90;;;;;;4969196;28;20038;-75
2022/01/08 00:25:58;;;;;;;16.55;7.78;;;2.30;99.90;;;;;;4969631;28;20591;-74
2022/01/08 00:28:24;;;;;;;17.13;8.50;;;2.30;99.90;;;;;;4971234;28;20046;-74
2022/01/08 00:30:50;;;;;;;18.58;8.02;;;2.30;99.90;;;;;;4966425;28;20516;-75
2022/01/08 00:33:16;;;;;;;14.27;8.48;;;2.40;99.90;;;;;;4965483;28;20042;-75
2022/01/08 00:35:42;;;;;;;20.20;8.88;;;2.40;99.90;;;;;;4966456;28;20049;-74
2022/01/08 00:38:07;;;;;;;16.10;9.43;;;2.30;99.90;;;;;;4967176;28;20041;-74
2022/01/08 00:40:33;;;;;;;20.00;9.10;;;2.30;99.90;;;;;;4970188;28;20070;-74
2022/01/08 00:42:59;;;;;;;17.38;8.65;;;2.30;99.90;;;;;;4969089;28;20469;-74
2022/01/08 00:45:25;;;;;;;15.23;9.02;;;2.30;99.90;;;;;;4967099;28;20054;-75
2022/01/08 00:47:51;;;;;;;14.90;8.77;;;2.30;99.90;;;;;;4969575;28;20046;-75
2022/01/08 00:50:17;;;;;;;18.38;9.00;;;2.30;99.90;;;;;;4966302;28;20049;-75
2022/01/08 00:52:43;;;;;;;13.50;8.40;;;2.30;99.90;;;;;;4968884;28;20042;-75
2022/01/08 00:55:10;;;;;;;16.75;8.25;;;2.30;99.90;;;;;;4968695;28;20045;-75
2022/01/08 00:57:36;;;;;;;15.77;8.65;;;2.30;99.90;;;;;;4970767;28;20046;-75
2022/01/08 01:00:05;;;;;;;14.90;9.02;;;2.30;99.90;;;;;;4965737;28;20054;-75
2022/01/08 01:02:31;;;;;;;18.55;9.50;;;2.20;99.90;;;;;;4966169;28;20513;-75
2022/01/08 01:04:56;;;;;;;16.52;8.93;;;2.20;99.90;;;;;;4970264;28;20052;-75
2022/01/08 01:07:22;;;;;;;19.15;8.88;;;2.20;99.90;;;;;;4973743;28;20129;-74
2022/01/08 01:09:47;;;;;;;15.45;9.55;;;2.10;99.90;;;;;;4969522;28;20080;-75
2022/01/08 01:12:13;;;;;;;18.95;9.82;;;2.10;99.90;;;;;;4967503;28;20031;-75
2022/01/08 01:14:39;;;;;;;15.55;9.27;;;2.00;99.90;;;;;;4967862;28;22082;-74
2022/01/08 01:17:05;;;;;;;14.80;9.25;;;2.00;99.90;;;;;;4971592;28;20030;-74
2022/01/08 01:19:30;;;;;;;17.27;9.55;;;1.90;99.90;;;;;;4972600;28;20097;-74
2022/01/08 01:21:59;;;;;;;16.58;9.65;;;1.80;99.90;;;;;;4973257;28;20077;-74
2022/01/08 01:24:26;;;;;;;15.00;10.05;;;1.80;99.90;;;;;;4972910;28;20604;-75
2022/01/08 01:29:52;;;;;;;17.40;11.40;;;1.80;99.90;;;;;;4969754;28;20064;-75
2022/01/08 01:48:57;;;;;;;25.67;14.63;;;1.70;99.90;;;;;;4973214;28;20051;-75
2022/01/08 01:51:24;;;;;;;27.67;14.90;;;1.70;99.90;;;;;;4970495;28;20038;-75
2022/01/08 01:53:50;;;;;;;22.15;13.52;;;1.60;99.90;;;;;;4972304;28;20121;-75
2022/01/08 01:56:20;;;;;;;24.90;13.88;;;1.60;99.90;;;;;;4969813;28;20497;-75
2022/01/08 01:58:46;;;;;;;21.27;13.57;;;1.60;99.90;;;;;;4985055;28;20092;-76
2022/01/08 02:01:12;;;;;;;26.02;13.65;;;1.70;99.90;;;;;;4972254;28;20799;-75
2022/01/08 02:03:39;;;;;;;24.67;14.55;;;1.70;99.90;;;;;;4971184;28;20480;-76
2022/01/08 02:06:05;;;;;;;22.42;13.05;;;1.70;99.90;;;;;;4968851;28;20493;-76
2022/01/08 02:08:31;;;;;;;19.40;12.40;;;1.70;99.90;;;;;;4968500;28;20042;-76
2022/01/08 02:10:57;;;;;;;23.63;13.75;;;1.70;99.90;;;;;;4972043;28;20043;-76
2022/01/08 02:13:24;;;;;;;23.65;13.40;;;1.80;99.90;;;;;;4972300;28;20038;-76
2022/01/08 02:15:52;;;;;;;17.90;12.13;;;1.80;99.90;;;;;;4989201;28;20509;-76
2022/01/08 02:18:23;;;;;;;25.98;14.50;;;1.70;99.90;;;;;;4971505;28;20507;-76
2022/01/08 02:20:49;;;;;;;20.08;13.60;;;1.70;99.90;;;;;;4971383;28;20408;-76
2022/01/08 02:23:15;;;;;;;29.40;14.70;;;1.70;99.90;;;;;;4972233;28;20477;-76
2022/01/08 02:25:40;;;;;;;20.65;13.45;;;1.70;99.90;;;;;;4971696;28;20043;-76
2022/01/08 02:28:06;;;;;;;23.45;13.73;;;1.70;99.90;;;;;;4970590;28;20053;-76
2022/01/08 02:30:33;;;;;;;23.00;13.82;;;1.70;99.90;;;;;;4970618;28;20121;-76
2022/01/08 02:32:59;;;;;;;24.45;13.82;;;1.70;99.90;;;;;;4973138;28;20377;-76
2022/01/08 02:35:25;;;;;;;23.25;14.13;;;1.70;99.90;;;;;;4969056;28;20045;-76
2022/01/08 02:37:52;;;;;;;30.30;14.52;;;1.70;99.90;;;;;;4967813;28;20389;-76
2022/01/08 02:40:19;;;;;;;24.08;13.93;;;1.70;99.90;;;;;;4970152;28;20391;-76
2022/01/08 02:42:52;;;;;;;23.73;12.70;;;1.70;99.90;;;;;;4970265;28;20522;-76
2022/01/08 02:45:19;;;;;;;24.00;13.68;;;1.70;99.90;;;;;;4989516;28;20829;-76
2022/01/08 02:47:46;;;;;;;24.20;13.15;;;1.70;99.90;;;;;;4971610;28;20432;-76
2022/01/08 02:50:12;;;;;;;22.45;12.73;;;1.70;99.90;;;;;;4970973;28;20096;-76
2022/01/08 02:52:43;;;;;;;21.10;12.93;;;1.70;99.90;;;;;;4969874;28;20114;-76
2022/01/08 02:55:09;;;;;;;24.02;12.40;;;1.70;99.90;;;;;;4937972;28;20138;-76
2022/01/08 02:57:35;;;;;;;19.58;12.60;;;1.70;99.90;;;;;;4970685;28;20715;-76
2022/01/08 03:00:01;;;;;;;22.13;12.90;;;1.60;99.90;;;;;;4972318;28;20046;-76
2022/01/08 03:02:26;;;;;;;27.10;11.90;;;1.60;99.90;;;;;;4967780;28;20034;-76
2022/01/08 03:04:54;;;;;;;23.75;12.43;;;1.60;99.90;;;;;;4970591;28;20564;-76
2022/01/08 03:07:20;;;;;;;20.52;10.98;;;1.60;99.90;;;;;;4985173;28;20042;-76
2022/01/08 03:09:53;;;;;;;26.75;12.02;;;1.60;99.90;;;;;;4970511;28;20045;-76
2022/01/08 03:12:19;;;;;;;16.15;10.43;;;1.60;99.90;;;;;;4970846;28;20488;-76
2022/01/08 03:14:44;;;;;;;20.00;10.48;;;1.60;99.90;;;;;;4966462;28;20085;-76
2022/01/08 03:17:10;;;;;;;28.92;11.00;;;1.50;99.90;;;;;;4984634;28;20042;-76
2022/01/08 03:19:37;;;;;;;17.55;10.18;;;1.50;99.90;;;;;;4955378;28;20438;-76
2022/01/08 03:22:04;;;;;;;15.77;10.10;;;1.40;99.90;;;;;;4954381;28;20030;-76
2022/01/08 03:24:30;;;;;;;20.80;10.40;;;1.40;99.90;;;;;;4968613;28;20045;-76
2022/01/08 03:26:57;;;;;;;22.30;11.18;;;1.40;99.90;;;;;;4953935;28;20046;-76
2022/01/08 03:29:23;;;;;;;18.92;10.45;;;1.40;99.90;;;;;;4971529;28;20171;-76
2022/01/08 03:31:49;;;;;;;21.90;10.63;;;1.40;99.90;;;;;;4969542;28;20030;-76
2022/01/08 03:34:15;;;;;;;23.23;11.43;;;1.40;99.90;;;;;;4969144;28;20045;-76
2022/01/08 03:36:40;;;;;;;19.95;10.57;;;1.40;99.90;;;;;;4969577;28;20118;-76
2022/01/08 03:39:06;;;;;;;23.02;10.43;;;1.30;99.90;;;;;;4988510;28;20050;-76
2022/01/08 03:41:32;;;;;;;23.23;10.75;;;1.40;99.90;;;;;;4966384;28;20039;-76
2022/01/08 03:43:57;;;;;;;24.13;10.68;;;1.40;99.90;;;;;;4969904;28;20065;-76
2022/01/08 03:46:27;;;;;;;21.48;11.05;;;1.40;99.90;;;;;;4966683;28;20034;-75
2022/01/08 03:51:28;;;;;;;23.15;10.70;;;1.50;99.90;;;;;;4953447;28;20172;-75
2022/01/08 03:53:54;;;;;;;25.50;11.30;;;1.50;99.90;;;;;;4987563;28;20042;-75
2022/01/08 03:56:20;;;;;;;25.60;11.18;;;1.60;99.90;;;;;;4988019;28;20479;-75
2022/01/08 03:58:45;;;;;;;24.02;10.95;;;1.60;99.90;;;;;;4970821;28;20044;-75
2022/01/08 04:01:11;;;;;;;22.02;10.70;;;1.60;99.90;;;;;;4971769;28;20061;-75
2022/01/08 04:03:37;;;;;;;17.35;10.30;;;1.60;99.90;;;;;;4964336;28;20087;-76
2022/01/08 04:06:03;;;;;;;21.15;10.57;;;1.60;99.90;;;;;;4967103;28;20038;-76
2022/01/08 04:08:28;;;;;;;19.23;11.50;;;1.60;99.90;;;;;;4970550;28;20049;-76
2022/01/08 04:10:54;;;;;;;21.42;11.98;;;1.50;99.90;;;;;;4968716;28;20026;-76
2022/01/08 04:13:25;;;;;;;25.88;13.07;;;1.50;99.90;;;;;;4966760;28;20071;-76
2022/01/08 04:15:56;;;;;;;24.17;12.50;;;1.50;99.90;;;;;;4949307;28;20097;-76
2022/01/08 04:18:21;;;;;;;22.58;12.02;;;1.50;99.90;;;;;;4970088;28;20444;-75
2022/01/08 04:23:34;;;;;;;24.00;13.90;;;1.60;99.90;;;;;;4937139;28;20065;-75
2022/01/08 04:25:59;;;;;;;26.42;11.95;;;1.60;99.90;;;;;;4968789;28;20062;-75
2022/01/08 04:28:25;;;;;;;25.15;12.50;;;1.60;99.90;;;;;;4965925;28;20069;-76
2022/01/08 04:30:51;;;;;;;28.65;13.48;;;1.60;99.90;;;;;;4972064;28;20041;-76
2022/01/08 04:33:16;;;;;;;20.15;12.02;;;1.60;99.90;;;;;;4971320;28;20488;-76
2022/01/08 04:35:42;;;;;;;33.20;13.45;;;1.60;99.90;;;;;;4958175;28;20038;-76
2022/01/08 04:38:08;;;;;;;24.85;13.55;;;1.60;99.90;;;;;;4975573;28;20733;-76
2022/01/08 04:40:34;;;;;;;26.45;13.02;;;1.60;99.90;;;;;;4974383;28;20186;-76
2022/01/08 04:43:01;;;;;;;22.38;12.93;;;1.60;99.90;;;;;;4960630;28;20489;-76
2022/01/08 04:45:29;;;;;;;23.85;11.45;;;1.60;99.90;;;;;;4977200;28;20460;-76
2022/01/08 04:47:56;;;;;;;21.45;11.73;;;1.60;99.90;;;;;;4956310;28;20070;-76
2022/01/08 04:50:23;;;;;;;26.30;12.45;;;1.60;99.90;;;;;;4972529;28;20494;-77
2022/01/08 04:52:49;;;;;;;17.77;10.95;;;1.60;99.90;;;;;;4972156;28;20138;-77
2022/01/08 04:55:15;;;;;;;22.15;10.95;;;1.60;99.90;;;;;;4974731;28;20575;-77
2022/01/08 04:57:41;;;;;;;21.02;10.43;;;1.60;99.90;;;;;;4986095;28;20034;-76
2022/01/08 05:00:07;;;;;;;22.60;10.48;;;1.60;99.90;;;;;;4971389;28;20118;-76
2022/01/08 05:02:33;;;;;;;24.02;10.70;;;1.60;99.90;;;;;;4971870;28;20034;-77
2022/01/08 05:04:58;;;;;;;18.23;10.48;;;1.60;99.90;;;;;;4972699;28;20085;-75
2022/01/08 05:07:24;;;;;;;17.52;9.95;;;1.60;99.90;;;;;;4955961;28;20393;-75
2022/01/08 05:09:49;;;;;;;21.00;10.07;;;1.60;99.90;;;;;;4971514;28;20034;-76
2022/01/08 05:12:15;;;;;;;18.33;8.85;;;1.50;99.90;;;;;;4957763;28;20472;-76
2022/01/08 05:14:43;;;;;;;17.95;9.35;;;1.50;99.90;;;;;;4973183;28;20045;-76
2022/01/08 05:17:09;;;;;;;25.63;9.57;;;1.50;99.90;;;;;;4974817;28;20045;-76
2022/01/08 05:19:45;;;;;;;25.13;8.57;;;1.50;99.90;;;;;;4971402;28;20118;-76
2022/01/08 05:22:20;;;;;;;18.65;8.60;;;1.50;99.90;;;;;;4991209;28;20030;-77
2022/01/08 05:24:45;;;;;;;18.45;8.82;;;1.50;99.90;;;;;;4973961;28;20049;-76
2022/01/08 05:27:15;;;;;;;17.83;8.20;;;1.40;99.90;;;;;;4958147;28;20042;-75
2022/01/08 05:29:42;;;;;;;19.33;8.13;;;1.40;99.90;;;;;;4971523;28;20047;-75
2022/01/08 05:32:08;;;;;;;23.02;8.45;;;1.30;99.90;;;;;;4973806;28;20392;-76
2022/01/08 05:34:33;;;;;;;16.00;7.45;;;1.30;99.90;;;;;;4974467;28;20049;-75
2022/01/08 05:36:59;;;;;;;15.57;7.80;;;1.30;99.90;;;;;;4969167;28;20030;-76
2022/01/08 05:39:25;;;;;;;12.68;7.03;;;1.30;99.90;;;;;;4972711;28;20144;-75
2022/01/08 05:41:51;;;;;;;16.20;7.60;;;1.30;99.90;;;;;;4969391;28;20053;-75
2022/01/08 05:44:17;;;;;;;18.60;7.30;;;1.40;99.90;;;;;;4970013;28;20164;-76
2022/01/08 05:46:45;;;;;;;24.23;8.30;;;1.40;99.90;;;;;;4970548;28;20069;-75
2022/01/08 05:49:12;;;;;;;21.60;8.40;;;1.40;99.90;;;;;;4970000;28;20045;-76
2022/01/08 05:51:38;;;;;;;20.85;7.97;;;1.50;99.90;;;;;;4966357;28;20039;-76
2022/01/08 05:54:04;;;;;;;17.35;7.55;;;1.50;99.90;;;;;;4970234;28;20085;-75
2022/01/08 05:56:29;;;;;;;17.58;7.97;;;1.50;99.90;;;;;;4990001;23;20042;-73
2022/01/08 05:58:55;;;;;;;18.55;7.75;;;1.50;99.90;;;;;;4992442;28;20034;-73
2022/01/08 06:01:21;;;;;;;20.70;7.80;;;1.50;99.90;;;;;;4998102;28;20045;-73
2022/01/08 06:03:46;;;;;;;17.40;8.10;;;1.50;99.90;;;;;;4992691;28;20034;-73
2022/01/08 06:06:12;;;;;;;17.52;7.43;;;1.60;99.90;;;;;;4999185;28;20059;-73
2022/01/08 06:08:37;;;;;;;16.90;8.45;;;1.60;99.90;;;;;;4986974;28;20030;-73
2022/01/08 06:11:03;;;;;;;17.88;7.90;;;1.50;99.90;;;;;;4994181;28;20038;-73
2022/01/08 06:13:29;;;;;;;16.05;7.68;;;1.50;99.90;;;;;;4994012;28;20048;-73
2022/01/08 06:15:55;;;;;;;16.60;7.57;;;1.40;99.90;;;;;;4985874;28;20074;-74
2022/01/08 06:18:20;;;;;;;18.20;7.40;;;1.40;99.90;;;;;;4990748;28;20069;-74
2022/01/08 06:20:46;;;;;;;20.75;8.00;;;1.30;99.90;;;;;;4987771;28;20038;-73
2022/01/08 06:23:11;;;;;;;16.60;8.32;;;1.30;99.90;;;;;;4988702;28;20038;-73
2022/01/08 06:25:38;;;;;;;19.88;8.45;;;1.30;99.90;;;;;;5009904;28;20120;-73
2022/01/08 06:28:04;;;;;;;16.23;8.48;;;1.30;99.90;;;;;;4995603;28;20037;-73
2022/01/08 06:30:29;;;;;;;18.27;8.43;;;1.20;99.90;;;;;;4990234;28;20113;-73
2022/01/08 06:32:55;;;;;;;19.58;8.10;;;1.20;99.90;;;;;;4994983;28;20292;-73
2022/01/08 06:35:20;;;;;;;19.77;8.43;;;1.20;99.90;;;;;;4990215;28;20045;-73
2022/01/08 06:37:46;;;;;;;21.58;8.80;;;1.10;99.90;;;;;;4988774;28;20038;-73
2022/01/08 06:40:12;;;;;;;20.80;8.77;;;1.10;99.90;;;;;;4987130;28;20042;-73
2022/01/08 06:42:37;;;;;;;20.15;9.13;;;1.10;99.90;;;;;;4988309;28;20404;-73
2022/01/08 06:45:03;;;;;;;18.25;8.25;;;1.10;99.90;;;;;;4989421;28;20124;-73
2022/01/08 06:47:29;;;;;;;20.52;9.13;;;1.10;99.90;;;;;;4988428;28;20400;-73
2022/01/08 06:49:54;;;;;;;25.40;9.35;;;1.10;99.90;;;;;;4990191;28;20124;-73
2022/01/08 06:52:20;;;;;;;23.38;9.65;;;1.00;99.90;;;;;;4990200;28;20046;-73
2022/01/08 06:54:46;;;;;;;22.98;9.13;;;1.00;99.90;;;;;;4988315;28;20065;-73
2022/01/08 06:57:11;;;;;;;19.50;9.02;;;1.00;99.90;;;;;;4991531;28;22179;-73
2022/01/08 06:59:37;;;;;;;25.33;9.45;;;0.90;99.90;;;;;;5007038;28;20045;-73
2022/01/08 07:02:03;;;;;;;21.85;9.18;;;1.00;99.90;;;;;;4990206;28;20531;-73
2022/01/08 07:04:28;;;;;;;22.67;10.05;;;1.00;99.90;;;;;;4988596;28;20042;-73
2022/01/08 07:06:54;;;;;;;21.67;9.55;;;1.00;99.90;;;;;;4989439;28;20435;-73
2022/01/08 07:09:19;;;;;;;22.75;10.02;;;1.00;99.90;;;;;;4988854;28;20139;-73
2022/01/08 07:11:45;;;;;;;20.85;9.57;;;1.00;99.90;;;;;;4988622;28;20506;-74
2022/01/08 07:14:10;;;;;;;19.15;8.98;;;1.10;99.90;;;;;;4992423;28;20115;-73
2022/01/08 07:16:36;;;;;;;20.70;8.30;;;1.00;99.90;;;;;;4974656;28;20030;-73
2022/01/08 07:19:02;;;;;;;20.45;9.10;;;1.00;99.90;;;;;;4974410;28;20119;-74
2022/01/08 07:21:27;;;;;;;18.58;8.13;;;1.00;99.90;;;;;;4987897;28;20507;-73
2022/01/08 07:23:53;;;;;;;19.73;9.07;;;1.00;99.90;;;;;;4970512;28;20069;-74
2022/01/08 07:26:20;;;;;;;17.08;7.90;;;1.00;99.90;;;;;;4986896;28;20080;-74
2022/01/08 07:28:46;;;;;;;23.83;7.90;;;1.00;99.90;;;;;;4984453;28;20050;-73
2022/01/08 07:31:11;;;;;;;16.17;7.60;;;1.00;99.90;;;;;;4988186;28;20045;-74
2022/01/08 07:33:37;;;;;;;17.48;7.13;;;1.00;99.90;;;;;;4990619;28;20077;-74
2022/01/08 07:36:03;;;;;;;18.25;8.48;;;1.00;99.90;;;;;;4991404;28;20111;-73
2022/01/08 07:38:29;;;;;;;17.17;8.05;;;1.10;99.90;;;;;;4990918;28;20038;-74
2022/01/08 07:40:54;;;;;;;14.13;7.95;;;1.10;99.90;;;;;;4993722;28;20383;-74
2022/01/08 07:43:20;;;;;;;18.45;7.47;;;1.10;99.90;;;;;;4989955;28;20492;-74
2022/01/08 07:45:46;;;;;;;26.02;7.75;;;1.10;99.90;;;;;;4974137;28;20065;-74
2022/01/08 07:48:11;;;;;;;14.40;7.72;;;1.20;99.90;;;;;;4989774;28;20045;-74
2022/01/08 07:50:37;;;;;;;17.42;7.53;;;1.10;99.90;;;;;;4991437;28;20042;-74
2022/01/08 07:53:03;;;;;;;17.27;7.93;;;1.10;99.90;;;;;;4971229;28;20069;-73
2022/01/08 07:55:28;;;;;;;14.63;7.75;;;1.10;99.90;;;;;;4988690;28;20419;-73
2022/01/08 07:57:54;;;;;;;16.88;8.10;;;1.10;99.90;;;;;;4987998;28;20459;-73
2022/01/08 08:00:19;;;;;;;15.82;7.43;;;1.10;99.90;;;;;;4987828;28;20385;-73
2022/01/08 08:02:45;;;;;;;18.27;8.10;;;1.10;99.90;;;;;;4987028;28;20631;-73
2022/01/08 08:05:11;;;;;;;16.88;7.53;;;1.10;99.90;;;;;;4987639;28;20038;-73
2022/01/08 08:07:38;;;;;;;17.55;7.15;;;1.10;99.90;;;;;;4989841;28;20414;-73
2022/01/08 08:10:11;;;;;;;28.77;8.05;;;1.00;99.90;;;;;;4974390;28;20387;-72
2022/01/08 08:12:40;;;;;;;22.50;8.52;;;1.00;99.90;;;;;;4987930;28;20049;-74
2022/01/08 08:15:07;;;;;;;19.92;8.30;;;1.00;99.90;;;;;;4974512;28;20073;-73
2022/01/08 08:17:35;;;;;;;17.13;7.70;;;1.10;99.90;;;;;;4990255;28;20046;-73
2022/01/08 08:20:02;;;;;;;16.70;7.45;;;1.10;99.90;;;;;;4988263;28;20038;-73
2022/01/08 08:22:28;;;;;;;19.20;8.52;;;1.10;99.90;;;;;;4966439;28;20133;-73
2022/01/08 08:24:53;;;;;;;20.70;8.77;;;1.10;99.90;;;;;;4990382;28;20741;-73
2022/01/08 08:27:19;;;;;;;19.63;8.15;;;1.10;99.90;;;;;;4989896;28;20129;-73
2022/01/08 08:29:45;;;;;;;20.40;8.23;;;1.10;99.90;;;;;;4986347;28;20034;-73
2022/01/08 08:32:10;;;;;;;20.63;8.10;;;1.20;99.90;;;;;;4988245;28;20041;-73
2022/01/08 08:34:36;;;;;;;18.55;8.60;;;1.20;99.90;;;;;;4988320;28;20030;-73
2022/01/08 08:37:02;;;;;;;16.73;7.97;;;1.20;99.90;;;;;;4987909;28;20037;-73
2022/01/08 08:39:28;;;;;;;20.55;8.35;;;1.30;99.90;;;;;;4989016;28;20038;-73
2022/01/08 08:41:54;;;;;;;20.17;8.35;;;1.30;99.90;;;;;;4987825;28;20043;-74
2022/01/08 08:44:20;;;;;;;20.10;8.63;;;1.30;99.90;;;;;;4983924;28;20072;-73
2022/01/08 08:46:45;;;;;;;22.80;8.27;;;1.30;99.90;;;;;;4971783;28;20054;-73
2022/01/08 08:49:11;;;;;;;16.95;8.00;;;1.30;99.90;;;;;;4989505;28;20065;-73
2022/01/08 08:51:37;;;;;;;18.35;8.27;;;1.40;99.90;;;;;;4984772;28;20052;-73
2022/01/08 08:54:03;;;;;;;17.40;8.45;;;1.40;99.90;;;;;;4989443;28;20043;-73
2022/01/08 08:56:29;;;;;;;15.75;8.07;;;1.40;99.90;;;;;;4986335;28;20385;-73
2022/01/08 08:58:55;;;;;;;17.48;7.38;;;1.50;99.90;;;;;;4973065;28;20034;-73
2022/01/08 09:01:21;;;;;;;18.75;7.65;;;1.60;99.90;;;;;;4986195;28;20034;-73
2022/01/08 09:03:47;;;;;;;20.42;8.07;;;1.60;99.90;;;;;;4984666;28;20034;-73
2022/01/08 09:06:13;;;;;;;17.88;7.82;;;1.70;99.90;;;;;;4988009;28;20140;-73
2022/01/08 09:08:38;;;;;;;18.42;7.10;;;1.70;99.90;;;;;;4989818;28;20125;-73
2022/01/08 09:11:04;;;;;;;28.13;7.65;;;1.70;99.90;;;;;;4996561;28;20491;-76
2022/01/08 09:13:32;;;;;;;15.18;7.70;;;1.80;99.90;;;;;;4976016;28;20075;-74
2022/01/08 09:15:59;;;;;;;15.68;8.10;;;1.80;99.90;;;;;;4976109;28;20049;-74
2022/01/08 09:18:31;;;;;;;21.13;9.35;;;1.90;99.90;;;;;;4974807;28;20046;-73
2022/01/08 09:20:58;;;;;;;21.90;9.32;;;1.90;99.90;;;;;;4975310;28;20060;-73
2022/01/08 09:23:41;;;;;;;19.17;8.77;;;1.80;99.90;;;;;;4945056;28;20210;-73
2022/01/08 09:26:07;;;;;;;18.08;8.85;;;1.90;99.90;;;;;;4962654;28;20034;-74
2022/01/08 09:28:36;;;;;;;18.20;9.50;;;1.90;99.90;;;;;;4981013;28;20042;-73
2022/01/08 09:31:03;;;;;;;19.80;10.23;;;1.90;99.90;;;;;;5017470;28;20030;-73
2022/01/08 09:33:29;;;;;;;17.08;9.50;;;1.90;99.90;;;;;;5015804;28;20045;-73
2022/01/08 09:35:55;;;;;;;25.80;10.48;;;1.90;99.90;;;;;;4963922;28;20180;-73
2022/01/08 09:38:21;;;;;;;18.52;9.80;;;1.90;99.90;;;;;;5015560;28;20966;-73
2022/01/08 09:40:47;;;;;;;23.52;10.68;;;1.90;99.90;;;;;;5014350;28;20372;-73
2022/01/08 09:43:13;;;;;;;20.73;10.05;;;2.00;99.90;;;;;;5002833;28;20499;-73
2022/01/08 09:45:39;;;;;;;18.65;10.32;;;2.00;99.90;;;;;;5010134;28;20073;-73
2022/01/08 09:48:05;;;;;;;23.77;11.30;;;1.90;99.90;;;;;;4994148;28;20373;-73
2022/01/08 09:50:30;;;;;;;20.27;11.63;;;2.00;99.90;;;;;;5012412;28;20717;-73
2022/01/08 09:52:58;;;;;;;20.35;11.75;;;2.00;99.90;;;;;;5009085;28;20030;-73
2022/01/08 09:55:28;;;;;;;21.67;11.00;;;2.00;99.90;;;;;;5010693;28;20048;-73
2022/01/08 09:57:54;;;;;;;21.63;11.98;;;2.10;99.90;;;;;;4994739;28;20044;-73
2022/01/08 10:00:21;;;;;;;19.98;11.43;;;2.10;99.90;;;;;;5011034;28;20034;-73
2022/01/08 10:02:46;;;;;;;19.10;11.75;;;2.20;99.90;;;;;;4992482;28;20404;-73
2022/01/08 10:05:15;;;;;;;24.08;12.25;;;2.20;99.90;;;;;;4993790;28;20069;-73
2022/01/08 10:07:41;;;;;;;22.35;12.05;;;2.30;99.90;;;;;;4989304;28;20129;-73
2022/01/08 10:10:17;;;;;;;25.55;13.77;;;2.30;99.90;;;;;;5011011;28;20066;-73
2022/01/08 10:12:52;;;;;;;26.98;12.73;;;2.30;99.90;;;;;;4976738;28;20496;-73
2022/01/08 10:18:28;;;;;;;20.23;12.50;;;2.50;99.90;;;;;;5009682;28;20046;-72
2022/01/08 10:20:55;;;;;;;21.38;12.68;;;2.60;99.90;;;;;;4989823;28;20038;-72
2022/01/08 10:23:27;;;;;;;20.25;12.07;;;2.70;99.90;;;;;;4989277;28;20034;-73
2022/01/08 10:26:05;;;;;;;21.35;12.70;;;2.80;99.90;;;;;;4993440;28;20133;-73
2022/01/08 10:28:35;;;;;;;25.88;12.38;;;2.90;99.90;;;;;;4987035;28;20124;-73
2022/01/08 10:31:20;;;;;;;20.63;12.40;;;3.00;99.90;;;;;;4992949;28;20069;-72
2022/01/08 10:34:01;;;;;;;23.20;12.35;;;3.00;99.90;;;;;;4988569;28;20044;-74
2022/01/08 10:36:29;;;;;;;27.60;12.48;;;3.10;99.90;;;;;;4993262;28;20066;-74
2022/01/08 10:38:56;;;;;;;19.02;11.90;;;3.20;99.90;;;;;;4988674;28;20066;-74
2022/01/08 10:41:24;;;;;;;22.25;11.90;;;3.20;99.90;;;;;;4985622;28;20045;-75
2022/01/08 10:44:08;;;;;;;27.25;11.50;;;3.20;99.90;;;;;;4987915;28;20037;-75
2022/01/08 10:46:35;;;;;;;19.90;11.07;;;3.20;99.90;;;;;;4986361;28;20041;-75
2022/01/08 10:49:01;;;;;;;23.55;11.90;;;3.20;99.90;;;;;;4989056;28;20053;-75
2022/01/08 10:51:34;;;;;;;19.73;11.35;;;3.20;99.90;;;;;;4991099;28;20050;-76
2022/01/08 10:54:08;;;;;;;;;;;3.30;99.90;;;;;;4979072;28;20044;-76
2022/01/08 10:56:44;;;;;;;18.75;10.55;;;3.30;99.90;;;;;;4993841;28;19924;-76
2022/01/08 10:59:13;;;;;;;21.25;10.95;;;3.40;99.90;;;;;;5006789;28;20124;-76
2022/01/08 11:01:51;;;;;;;21.45;10.57;;;3.40;99.90;;;;;;4991602;28;20033;-76
2022/01/08 11:04:29;;;;;;;22.52;10.30;;;3.50;99.90;;;;;;4991404;28;20181;-75
2022/01/08 11:07:01;;;;;;;22.77;11.32;;;3.60;99.90;;;;;;4987830;28;20065;-75
2022/01/08 11:09:28;;;;;;;18.67;9.70;;;3.60;99.90;;;;;;4991956;28;20053;-75
2022/01/08 11:11:56;;;;;;;20.65;10.30;;;3.70;99.90;;;;;;4990857;28;20030;-75
2022/01/08 11:15:00;;;;;;;19.40;10.27;;;3.70;99.90;;;;;;4992875;28;20500;-75
2022/01/08 11:17:32;;;;;;;26.60;10.57;;;3.70;99.90;;;;;;4992893;28;20037;-75
2022/01/08 11:20:18;;;;;;;18.55;10.55;;;3.80;99.90;;;;;;4989990;28;20030;-75
2022/01/08 11:22:48;;;;;;;18.80;10.50;;;3.80;99.90;;;;;;4983869;28;20096;-74
2022/01/08 11:25:19;;;;;;;20.15;10.90;;;3.80;99.90;;;;;;5007824;28;20042;-74
2022/01/08 11:28:10;;;;;;;20.77;11.48;;;3.70;99.90;;;;;;4988442;28;20038;-74
2022/01/08 11:30:38;;;;;;;23.85;11.80;;;3.70;99.90;;;;;;4982391;28;20038;-74
2022/01/08 11:33:10;;;;;;;22.58;11.48;;;3.70;99.90;;;;;;4988906;28;20041;-74
2022/01/08 11:35:37;;;;;;;;;;;3.70;99.90;;;;;;4984820;28;20113;-74
2022/01/08 11:38:08;;;;;;;22.77;12.57;;;3.70;99.90;;;;;;4989766;28;19921;-74
2022/01/08 11:40:36;;;;;;;20.42;13.18;;;3.80;99.90;;;;;;4998339;28;20038;-74
2022/01/08 11:43:04;;;;;;;24.23;13.25;;;3.80;99.90;;;;;;5002094;28;20091;-74
2022/01/08 11:45:39;;;;;;;22.80;12.85;;;3.90;99.90;;;;;;4977785;28;20046;-74
2022/01/08 11:48:08;;;;;;;23.50;13.43;;;3.90;99.90;;;;;;4993412;28;20041;-74
2022/01/08 11:50:34;;;;;;;22.42;13.05;;;4.00;99.90;;;;;;4990727;28;20139;-74
2022/01/08 11:53:13;;;;;;;26.73;13.77;;;4.10;99.90;;;;;;4992400;28;20575;-74
2022/01/08 11:55:40;;;;;;;21.65;14.18;;;4.20;99.90;;;;;;4987321;28;20050;-74
2022/01/08 11:58:23;;;;;;;23.50;14.98;;;4.30;99.90;;;;;;4989286;28;20085;-74
2022/01/08 12:01:03;;;;;;;21.60;15.48;;;4.30;99.90;;;;;;4987900;28;20117;-74
2022/01/08 12:03:31;;;;;;;24.63;16.48;;;4.40;99.90;;;;;;4985998;28;20170;-74
2022/01/08 12:06:18;;;;;;;23.90;15.73;;;4.30;99.90;;;;;;4981919;28;20069;-74
2022/01/08 12:09:26;;;;;;;26.30;16.48;;;4.30;99.90;;;;;;4972181;28;20045;-74
2022/01/08 12:11:52;;;;;;;24.58;16.05;;;4.30;99.90;;;;;;4994182;28;20049;-74
2022/01/08 12:14:21;;;;;;;24.48;18.30;;;4.30;99.90;;;;;;4988148;28;20038;-74
2022/01/08 12:16:49;;;;;;;27.90;19.15;;;4.20;99.90;;;;;;4987793;28;20033;-74
2022/01/08 12:19:35;;;;;;;32.42;19.95;;;4.10;99.90;;;;;;5007018;28;20069;-74
2022/01/08 12:22:21;;;;;;;27.48;18.35;;;4.10;99.90;;;;;;4994050;28;20406;-74
2022/01/08 12:25:02;;;;;;;27.83;17.40;;;4.00;99.90;;;;;;5007643;28;20076;-74
2022/01/08 12:27:40;;;;;;;29.20;20.10;;;4.10;99.90;;;;;;4981977;28;20053;-74
2022/01/08 12:30:18;;;;;;;25.88;18.60;;;4.10;99.90;;;;;;5038916;23;20026;-75
2022/01/08 12:32:50;;;;;;;24.33;19.52;;;4.00;99.90;;;;;;4983274;28;20054;-75
2022/01/08 12:35:18;;;;;;;;;;;4.00;99.90;;;;;;4952003;28;20050;-75
2022/01/08 12:37:55;;;;;;;33.20;20.63;;;4.00;99.90;;;;;;4953529;28;20020;-75
2022/01/08 12:40:55;;;;;;;35.58;22.70;;;4.00;99.90;;;;;;4975581;28;20030;-75
2022/01/08 12:43:23;;;;;;;29.17;20.83;;;3.90;99.90;;;;;;4922605;28;20126;-75
2022/01/08 12:46:10;;;;;;;33.30;22.55;;;4.00;99.90;;;;;;4959459;28;20034;-74
2022/01/08 12:48:36;;;;;;;31.75;22.80;;;4.00;99.90;;;;;;4960758;28;20113;-75
2022/01/08 12:51:05;;;;;;;31.05;21.80;;;4.00;99.90;;;;;;4953856;28;20066;-75
2022/01/08 12:53:32;;;;;;;30.80;21.73;;;4.00;99.90;;;;;;4965050;28;20158;-74
2022/01/08 12:55:58;;;;;;;32.38;23.13;;;4.00;99.90;;;;;;4962119;28;20041;-75
2022/01/08 12:58:35;;;;;;;32.38;24.30;;;4.10;99.90;;;;;;4959278;28;20031;-75
2022/01/08 13:01:08;;;;;;;41.22;24.42;;;4.10;99.90;;;;;;4973712;28;20062;-75
2022/01/08 13:03:35;;;;;;;33.25;21.83;;;4.10;99.90;;;;;;4972513;28;20027;-75
2022/01/08 13:06:03;;;;;;;30.85;22.30;;;4.00;99.90;;;;;;4955719;28;20079;-75
2022/01/08 13:08:34;;;;;;;38.13;23.77;;;4.10;99.90;;;;;;4958605;28;20111;-75
2022/01/08 13:17:15;;;;;;;35.58;23.90;;;4.10;99.90;;;;;;4062801;23;20182;-74
2022/01/08 13:25:27;;;;;;;32.90;21.67;;;4.00;99.90;;;;;;5025002;23;20058;-75
2022/01/08 13:27:53;;;;;;;33.63;22.77;;;4.10;99.90;;;;;;4990420;28;20463;-75